Terminal Aerodrome Forecast
Issued by NWS

Home | Current Version | Previous Version | Text Only | Print | Product List | Glossary On
Versions: 1 2 3 4 5 6 7 8 9 10 11 12 13 14 15 16 17 18 19 20 21 22 23 24 25
000
FTUS46 KSEW 212300
TAFSEA
TAF
KSEA 212324Z 2200/2306 23010G20KT P6SM SCT018 BKN025 OVC050
     FM220200 24010KT P6SM SCT018 OVC025
     FM220600 16007KT P6SM BKN018 OVC025
     FM222000 15005KT P6SM BKN045 BKN120
     FM230000 12005KT P6SM SCT045 BKN100=

USA.gov is the U.S. government's official web portal to all federal, state and local government web resources and services.